Time;durP1;ratioP1;P1;durP2;ratioP2;P2;SDS_P1;SDS_P2;PMS_P1;PMS_P2;Temp;Humidity;BMP_temperature;BMP_pressure;BME280_temperature;BME280_humidity;BME280_pressure;Samples;Min_cycle;Max_cycle;Signal;HPM_P1;HPM_P2
2023/10/29 00:01:41;;;;;;;4.07;2.05;;;;;;;7.02;61.64;99463.13;5000857;28;20029;-70
2023/10/29 00:04:06;;;;;;;3.08;1.38;;;;;;;7.05;61.83;99449.13;5000402;28;20037;-71
2023/10/29 00:06:31;;;;;;;4.40;1.80;;;;;;;6.95;62.05;99443.53;4996108;28;20456;-70
2023/10/29 00:08:57;;;;;;;3.08;1.63;;;;;;;7.00;62.25;99430.31;5006221;28;20040;-66
2023/10/29 00:11:22;;;;;;;5.32;1.40;;;;;;;7.00;62.21;99409.53;4997176;28;20033;-66
2023/10/29 00:13:48;;;;;;;3.15;1.73;;;;;;;7.02;62.20;99392.97;5001004;28;20060;-65
2023/10/29 00:16:14;;;;;;;4.38;1.58;;;;;;;6.96;62.38;99364.69;5003684;28;20812;-66
2023/10/29 00:18:40;;;;;;;5.43;0.88;;;;;;;6.90;62.78;99358.03;4991025;28;20527;-66
2023/10/29 00:21:06;;;;;;;6.78;1.23;;;;;;;6.94;62.84;99352.72;4999401;28;20132;-66
2023/10/29 00:23:32;;;;;;;2.72;1.70;;;;;;;6.79;63.15;99352.53;4995651;28;20745;-67
2023/10/29 00:25:58;;;;;;;3.15;1.25;;;;;;;6.91;62.59;99357.13;4987820;28;20558;-68
2023/10/29 00:28:25;;;;;;;4.43;1.50;;;;;;;6.98;62.60;99343.84;4994090;28;20037;-68
2023/10/29 00:30:54;;;;;;;5.10;1.50;;;;;;;6.81;63.13;99344.66;4997437;28;20115;-67
2023/10/29 00:33:20;;;;;;;2.13;1.40;;;;;;;6.91;63.08;99362.31;4985804;28;20547;-71
2023/10/29 00:35:46;;;;;;;3.75;1.27;;;;;;;7.02;62.57;99363.53;5006187;28;20029;-70
2023/10/29 00:38:11;;;;;;;4.05;1.20;;;;;;;7.06;62.76;99365.91;4986986;28;20621;-71
2023/10/29 00:40:40;;;;;;;3.25;1.60;;;;;;;6.96;63.04;99369.91;4997664;28;20060;-71
2023/10/29 00:43:05;;;;;;;3.38;1.52;;;;;;;6.89;63.33;99364.16;5006480;28;20075;-71
2023/10/29 00:45:31;;;;;;;3.88;1.17;;;;;;;6.86;63.46;99358.25;4994897;28;20041;-71
2023/10/29 00:47:58;;;;;;;3.65;1.27;;;;;;;7.08;63.00;99360.66;4999477;28;20041;-71
2023/10/29 00:50:24;;;;;;;2.35;1.67;;;;;;;7.00;63.41;99344.59;5013422;28;20044;-70
2023/10/29 00:52:51;;;;;;;2.63;1.20;;;;;;;7.07;63.47;99346.00;4998893;28;20045;-71
2023/10/29 00:55:18;;;;;;;2.08;0.80;;;;;;;7.12;63.12;99351.78;4990095;28;20029;-71
2023/10/29 00:57:44;;;;;;;5.68;1.52;;;;;;;7.03;63.99;99360.03;5003764;28;20385;-71
2023/10/29 01:00:10;;;;;;;4.05;1.05;;;;;;;7.16;63.60;99349.88;4999387;28;20057;-71
2023/10/29 01:02:36;;;;;;;3.72;1.88;;;;;;;7.15;63.38;99338.63;4995030;28;20124;-71
2023/10/29 01:05:05;;;;;;;1.90;1.05;;;;;;;7.13;63.92;99337.88;5007244;28;20025;-75
2023/10/29 01:07:31;;;;;;;3.17;1.17;;;;;;;7.31;63.83;99334.34;4995440;28;20120;-74
2023/10/29 01:10:00;;;;;;;3.05;1.27;;;;;;;7.22;63.71;99340.03;5005197;28;20025;-76
2023/10/29 01:12:27;;;;;;;3.88;1.48;;;;;;;7.32;63.92;99341.22;5002407;28;20071;-71
2023/10/29 01:14:53;;;;;;;5.32;2.28;;;;;;;7.24;64.56;99332.13;5008673;28;20030;-69
2023/10/29 01:17:20;;;;;;;3.40;1.20;;;;;;;7.14;64.95;99310.97;5002725;28;20030;-70
2023/10/29 01:19:46;;;;;;;2.33;1.65;;;;;;;7.36;64.38;99297.72;5005840;28;20650;-67
2023/10/29 01:22:11;;;;;;;3.97;1.48;;;;;;;7.06;65.30;99297.53;4996400;28;20034;-70
2023/10/29 01:24:40;;;;;;;3.30;1.50;;;;;;;7.29;64.82;99286.81;4982306;28;20026;-66
2023/10/29 01:27:06;;;;;;;4.63;1.25;;;;;;;7.16;65.50;99282.34;5002909;28;20452;-67
2023/10/29 01:29:31;;;;;;;2.10;1.27;;;;;;;7.22;65.01;99269.88;5003174;28;20044;-66
2023/10/29 01:31:57;;;;;;;2.63;1.20;;;;;;;7.18;65.11;99265.75;5001307;28;20041;-66
2023/10/29 01:34:22;;;;;;;3.25;1.40;;;;;;;7.35;64.55;99256.22;4979696;28;20030;-68
2023/10/29 01:36:48;;;;;;;2.40;1.15;;;;;;;7.37;64.29;99249.19;5001733;28;20109;-68
2023/10/29 01:39:14;;;;;;;7.35;1.20;;;;;;;7.04;65.64;99243.06;4997027;28;20048;-69
2023/10/29 01:41:39;;;;;;;3.60;1.42;;;;;;;7.05;65.23;99243.91;4997737;28;21394;-69
2023/10/29 01:44:05;;;;;;;5.63;1.00;;;;;;;7.21;64.94;99239.59;4999632;28;20416;-69
2023/10/29 01:46:30;;;;;;;2.90;1.27;;;;;;;7.25;65.12;99220.31;4995398;28;20038;-70
2023/10/29 01:48:56;;;;;;;2.15;1.33;;;;;;;7.10;65.32;99228.91;4996960;28;20037;-69
2023/10/29 01:51:22;;;;;;;2.35;1.10;;;;;;;7.35;64.62;99214.63;5012242;28;20030;-69
2023/10/29 01:53:47;;;;;;;8.23;1.30;;;;;;;7.20;65.03;99214.53;5006737;28;20167;-69
2023/10/29 01:56:13;;;;;;;2.05;1.05;;;;;;;7.02;65.65;99212.88;4985354;28;20537;-69
2023/10/29 01:58:38;;;;;;;1.92;0.80;;;;;;;6.88;65.95;99200.59;5002004;28;20037;-71
2023/10/29 02:01:11;;;;;;;1.63;1.10;;;;;;;7.03;65.93;99198.97;5000163;28;20531;-70
2023/10/29 02:03:37;;;;;;;1.85;1.10;;;;;;;6.84;66.62;99188.69;5001885;28;20512;-70
2023/10/29 02:06:03;;;;;;;2.05;1.23;;;;;;;6.99;66.15;99176.66;4999258;28;20091;-70
2023/10/29 02:08:28;;;;;;;1.80;0.93;;;;;;;7.34;64.97;99172.22;4974453;28;20098;-70
2023/10/29 02:10:54;;;;;;;1.90;1.35;;;;;;;7.24;64.80;99166.66;4989488;28;20041;-71
2023/10/29 02:13:19;;;;;;;3.47;1.33;;;;;;;6.91;66.22;99158.91;5000682;28;20048;-71
2023/10/29 02:15:45;;;;;;;5.63;1.13;;;;;;;6.98;66.60;99164.63;4995678;28;20116;-70
2023/10/29 02:18:11;;;;;;;1.83;0.85;;;;;;;7.13;66.33;99158.59;4999046;28;20045;-71
2023/10/29 02:20:37;;;;;;;3.00;1.23;;;;;;;7.27;65.29;99150.09;4993488;28;20168;-70
2023/10/29 02:23:03;;;;;;;2.25;0.82;;;;;;;7.26;65.82;99133.63;5000291;28;20050;-70
2023/10/29 02:25:28;;;;;;;1.65;1.02;;;;;;;7.10;66.62;99128.41;5011376;28;20033;-71
2023/10/29 02:27:54;;;;;;;3.40;1.30;;;;;;;7.19;66.13;99123.66;4980597;28;20168;-70
2023/10/29 02:30:19;;;;;;;4.28;0.98;;;;;;;7.14;66.68;99128.28;4986856;28;20619;-70
2023/10/29 02:32:45;;;;;;;1.92;1.45;;;;;;;7.30;66.13;99122.16;4995165;28;20033;-70
2023/10/29 02:35:11;;;;;;;3.17;1.23;;;;;;;7.30;66.35;99110.94;4999448;28;20037;-71
2023/10/29 02:37:36;;;;;;;1.40;0.75;;;;;;;7.06;67.50;99113.06;4997587;28;20515;-71
2023/10/29 02:40:03;;;;;;;3.55;1.08;;;;;;;7.41;66.42;99115.53;4998937;28;20424;-71
2023/10/29 02:42:29;;;;;;;2.28;0.90;;;;;;;7.68;66.16;99114.03;4997552;28;20083;-70
2023/10/29 02:44:55;;;;;;;2.53;1.02;;;;;;;7.60;66.25;99100.66;5000124;28;20274;-69
2023/10/29 02:47:20;;;;;;;2.03;1.08;;;;;;;7.47;66.74;99090.06;5000376;28;20032;-68
2023/10/29 02:49:46;;;;;;;3.33;0.80;;;;;;;7.79;65.75;99084.00;5002057;28;20082;-71
2023/10/29 02:52:12;;;;;;;2.08;1.33;;;;;;;7.64;66.40;99073.53;4996104;28;20033;-71
2023/10/29 02:54:37;;;;;;;3.33;1.00;;;;;;;7.65;66.97;99075.22;4997658;28;20292;-72
2023/10/29 02:57:03;;;;;;;3.20;1.70;;;;;;;7.79;66.48;99058.81;4986168;28;20437;-71
2023/10/29 02:59:29;;;;;;;1.73;1.48;;;;;;;7.96;65.73;99055.25;5000793;28;20342;-72
2023/10/29 03:01:54;;;;;;;2.47;1.70;;;;;;;7.94;65.67;99060.53;5004703;28;20030;-72
2023/10/29 03:04:21;;;;;;;3.85;1.85;;;;;;;7.90;66.11;99050.41;4998441;28;20042;-72
2023/10/29 03:06:46;;;;;;;4.40;2.03;;;;;;;7.89;66.52;99044.38;4986262;28;20115;-72
2023/10/29 03:09:12;;;;;;;1.23;1.13;;;;;;;8.01;65.81;99037.59;4976718;28;20040;-72
2023/10/29 03:11:38;;;;;;;4.15;1.80;;;;;;;7.97;66.22;99041.31;4995731;28;20045;-72
2023/10/29 03:14:03;;;;;;;2.03;1.42;;;;;;;7.72;66.68;99027.13;4996039;28;20133;-72
2023/10/29 03:16:29;;;;;;;2.63;1.48;;;;;;;7.63;67.00;99027.66;5003049;28;20121;-73
2023/10/29 03:18:54;;;;;;;3.97;1.80;;;;;;;7.77;66.94;99033.84;4981519;28;21033;-72
2023/10/29 03:21:20;;;;;;;2.05;1.33;;;;;;;7.95;66.76;99017.16;4999532;28;20222;-72
2023/10/29 03:23:45;;;;;;;3.85;1.80;;;;;;;7.76;67.12;99025.19;4980079;28;20051;-72
2023/10/29 03:26:11;;;;;;;2.03;1.80;;;;;;;8.22;66.12;99042.47;5002163;28;20025;-72
2023/10/29 03:28:37;;;;;;;2.30;1.33;;;;;;;8.15;66.33;99048.03;5006970;28;20087;-72
2023/10/29 03:31:13;;;;;;;3.28;1.50;;;;;;;8.53;64.96;99033.66;5003382;28;20041;-72
2023/10/29 03:33:38;;;;;;;2.67;1.90;;;;;;;8.52;64.64;99021.59;4999140;28;20038;-72
2023/10/29 03:36:04;;;;;;;5.65;1.70;;;;;;;8.57;64.77;99025.56;5008385;28;20068;-72
2023/10/29 03:38:30;;;;;;;3.50;1.48;;;;;;;8.57;64.60;99025.56;4999047;28;20045;-72
2023/10/29 03:40:55;;;;;;;1.77;1.10;;;;;;;8.63;64.58;99028.72;5001361;28;20053;-73
2023/10/29 03:43:21;;;;;;;2.60;1.55;;;;;;;8.43;65.30;99022.13;4988542;28;20420;-73
2023/10/29 03:45:47;;;;;;;2.20;1.42;;;;;;;8.38;65.71;99027.59;4988485;28;20129;-72
2023/10/29 03:48:15;;;;;;;2.20;2.00;;;;;;;8.57;64.83;99020.34;5002743;28;20038;-71
2023/10/29 03:50:41;;;;;;;2.08;1.33;;;;;;;8.86;63.75;99017.75;4999962;28;20515;-73
2023/10/29 03:53:07;;;;;;;3.83;1.38;;;;;;;8.95;63.83;99019.78;4985655;28;20034;-73
2023/10/29 03:55:36;;;;;;;2.65;1.38;;;;;;;8.92;63.39;99013.94;5005417;28;20090;-72
2023/10/29 03:58:02;;;;;;;3.33;1.42;;;;;;;8.96;63.56;99016.25;4986129;28;20034;-73
2023/10/29 04:00:32;;;;;;;6.47;1.17;;;;;;;8.87;63.83;99019.41;5009720;28;20045;-73
2023/10/29 04:02:59;;;;;;;2.25;1.20;;;;;;;8.90;63.68;98997.56;5002634;28;20152;-72
2023/10/29 04:05:25;;;;;;;2.80;1.23;;;;;;;9.06;63.08;99005.25;4989529;28;20149;-72
2023/10/29 04:07:52;;;;;;;1.10;0.70;;;;;;;8.85;63.87;99000.47;4998877;28;20046;-71
2023/10/29 04:10:17;;;;;;;2.53;0.73;;;;;;;8.89;63.77;98996.72;5003495;28;20764;-71
2023/10/29 04:12:44;;;;;;;3.85;0.63;;;;;;;8.73;64.63;98996.84;4997904;28;20452;-71
2023/10/29 04:15:09;;;;;;;2.45;0.85;;;;;;;8.86;64.30;98983.88;4987406;28;20030;-71
2023/10/29 04:17:34;;;;;;;1.80;1.00;;;;;;;8.82;64.51;98984.19;4998116;28;20528;-71
2023/10/29 04:20:00;;;;;;;2.03;0.40;;;;;;;8.89;64.18;98988.88;5002791;28;20475;-75
2023/10/29 04:22:26;;;;;;;1.55;0.68;;;;;;;9.15;63.11;98983.81;4986902;28;20060;-75
2023/10/29 04:24:51;;;;;;;1.65;1.15;;;;;;;8.84;63.82;98983.13;4999201;28;20168;-75
2023/10/29 04:27:17;;;;;;;1.35;0.70;;;;;;;8.89;64.13;98978.47;4987180;28;20029;-75
2023/10/29 04:29:43;;;;;;;2.85;0.77;;;;;;;8.98;63.76;98975.31;4998642;28;20033;-70
2023/10/29 04:32:08;;;;;;;1.50;0.63;;;;;;;9.21;62.90;98970.38;4999361;28;20045;-70
2023/10/29 04:34:34;;;;;;;3.00;0.68;;;;;;;9.27;62.69;98969.13;4995837;28;20030;-70
2023/10/29 04:37:00;;;;;;;0.77;0.30;;;;;;;8.87;64.00;98961.25;5006798;28;20040;-69
2023/10/29 04:39:25;;;;;;;1.65;1.20;;;;;;;9.19;63.39;98959.22;4999827;28;20045;-69
2023/10/29 04:41:51;;;;;;;1.10;0.50;;;;;;;9.09;63.20;98958.13;5000355;28;21453;-69
2023/10/29 04:44:16;;;;;;;1.35;0.70;;;;;;;9.12;63.29;98945.75;4998748;28;20045;-71
2023/10/29 04:46:42;;;;;;;1.73;0.50;;;;;;;9.37;62.54;98946.75;4999423;28;20279;-71
2023/10/29 04:49:08;;;;;;;2.17;0.40;;;;;;;9.08;63.08;98953.88;5007230;28;20973;-72
2023/10/29 04:51:34;;;;;;;2.20;0.30;;;;;;;9.18;63.00;98952.31;4999604;28;20038;-71
2023/10/29 04:54:02;;;;;;;3.35;0.70;;;;;;;9.33;62.62;98955.72;4997808;28;20044;-71
2023/10/29 04:56:28;;;;;;;1.25;0.40;;;;;;;9.02;63.47;98949.88;5002668;28;20022;-71
2023/10/29 04:58:54;;;;;;;2.20;0.43;;;;;;;9.11;63.57;98940.63;4995387;28;20503;-71
2023/10/29 05:01:19;;;;;;;3.63;0.20;;;;;;;9.40;62.28;98941.34;5000506;28;20034;-71
2023/10/29 05:03:45;;;;;;;2.47;0.57;;;;;;;9.51;61.96;98924.97;4997875;28;20530;-72
2023/10/29 05:06:21;;;;;;;2.97;0.82;;;;;;;9.26;62.54;98928.38;5000793;28;20095;-71
2023/10/29 05:08:46;;;;;;;1.05;0.25;;;;;;;9.35;62.29;98918.16;4997401;28;20037;-72
2023/10/29 05:11:12;;;;;;;0.55;0.20;;;;;;;9.36;62.03;98924.22;5006199;28;20115;-71
2023/10/29 05:13:39;;;;;;;2.70;0.75;;;;;;;9.37;62.17;98923.28;4995552;28;20088;-72
2023/10/29 05:16:05;;;;;;;1.10;0.30;;;;;;;9.09;62.56;98913.81;4999388;28;20034;-72
2023/10/29 05:18:30;;;;;;;1.25;0.30;;;;;;;9.30;61.57;98914.22;5000084;28;20105;-72
2023/10/29 05:20:56;;;;;;;1.02;0.30;;;;;;;9.10;62.60;98907.69;4995046;28;20033;-71
2023/10/29 05:23:21;;;;;;;5.28;0.40;;;;;;;9.02;62.52;98889.94;5001665;28;20547;-71
2023/10/29 05:25:47;;;;;;;1.27;0.35;;;;;;;9.12;62.14;98913.63;4994867;28;20044;-71
2023/10/29 05:28:13;;;;;;;2.83;0.30;;;;;;;9.10;62.50;98921.56;5007541;28;20489;-72
2023/10/29 05:30:39;;;;;;;0.65;0.30;;;;;;;9.22;62.07;98914.69;4986803;28;20045;-71
2023/10/29 05:33:05;;;;;;;4.22;0.60;;;;;;;9.23;61.71;98912.91;4999867;28;20231;-71
2023/10/29 05:35:30;;;;;;;1.60;0.40;;;;;;;9.02;62.40;98909.97;4999283;28;20029;-75
2023/10/29 05:37:56;;;;;;;1.80;0.30;;;;;;;8.92;63.02;98920.16;4996172;28;20508;-74
2023/10/29 05:40:21;;;;;;;1.50;0.30;;;;;;;8.84;63.51;98915.41;5005620;28;20049;-73
2023/10/29 05:42:47;;;;;;;0.68;0.20;;;;;;;9.01;63.26;98919.56;4995938;28;20092;-73
2023/10/29 05:45:12;;;;;;;0.95;0.20;;;;;;;9.29;62.08;98908.13;5004217;28;20577;-71
2023/10/29 05:47:37;;;;;;;3.05;0.25;;;;;;;9.43;61.78;98909.00;4997466;28;20649;-73
2023/10/29 05:50:06;;;;;;;0.65;0.20;;;;;;;9.42;61.85;98909.94;4996841;28;20037;-74
2023/10/29 05:52:32;;;;;;;1.85;0.20;;;;;;;9.43;61.58;98906.38;4998697;28;20041;-72
2023/10/29 05:55:00;;;;;;;0.88;0.30;;;;;;;9.42;61.42;98896.91;4998187;28;20534;-72
2023/10/29 05:57:26;;;;;;;3.13;0.30;;;;;;;9.26;61.34;98892.72;4997241;28;20041;-71
2023/10/29 05:59:51;;;;;;;0.47;0.20;;;;;;;9.28;61.39;98901.28;4995877;28;20053;-72
2023/10/29 06:02:17;;;;;;;1.58;0.45;;;;;;;9.01;62.38;98892.63;4998133;28;20056;-71
2023/10/29 06:04:43;;;;;;;1.33;0.20;;;;;;;9.15;61.57;98888.19;5007078;28;20397;-72
2023/10/29 06:07:08;;;;;;;1.05;0.17;;;;;;;9.06;61.88;98895.78;4996009;28;20029;-73
2023/10/29 06:09:34;;;;;;;1.77;0.40;;;;;;;8.77;63.29;98896.72;5002986;28;20689;-71
2023/10/29 06:12:00;;;;;;;0.90;0.15;;;;;;;8.91;62.44;98898.44;4981642;28;20038;-71
2023/10/29 06:14:26;;;;;;;0.52;0.20;;;;;;;8.89;62.93;98899.47;4997713;28;20205;-74
2023/10/29 06:16:56;;;;;;;0.93;0.20;;;;;;;8.95;62.09;98909.50;4994170;28;20068;-73
2023/10/29 06:19:24;;;;;;;0.60;0.20;;;;;;;9.02;62.06;98889.94;4996634;28;20110;-72
2023/10/29 06:21:50;;;;;;;0.52;0.32;;;;;;;9.06;62.19;98904.44;4988153;28;20649;-71
2023/10/29 06:24:17;;;;;;;2.03;0.30;;;;;;;9.02;62.60;98899.53;5010579;28;20055;-74
2023/10/29 06:26:42;;;;;;;1.23;0.20;;;;;;;9.10;61.81;98910.31;4999167;28;20092;-73
2023/10/29 06:29:08;;;;;;;0.93;0.30;;;;;;;8.80;62.83;98895.69;5002882;28;20959;-74
2023/10/29 06:31:37;;;;;;;3.33;0.35;;;;;;;9.24;61.82;98907.63;5000746;28;20030;-75
2023/10/29 06:34:03;;;;;;;1.75;0.20;;;;;;;9.25;61.47;98900.63;4991577;28;20037;-75
2023/10/29 06:36:29;;;;;;;1.67;0.28;;;;;;;9.42;60.95;98897.75;5002071;28;20041;-75
2023/10/29 06:38:55;;;;;;;2.08;0.20;;;;;;;9.27;61.53;98903.97;4995117;28;20524;-76
2023/10/29 06:41:21;;;;;;;0.32;0.10;;;;;;;9.23;61.55;98905.97;4997773;28;20129;-76
2023/10/29 06:43:47;;;;;;;1.08;0.25;;;;;;;9.02;62.48;98900.34;5000972;28;20063;-75
2023/10/29 06:46:15;;;;;;;0.45;0.10;;;;;;;9.19;61.83;98894.06;4993788;28;20018;-73
2023/10/29 06:48:41;;;;;;;0.63;0.10;;;;;;;9.45;60.89;98901.91;4994614;28;20045;-73
2023/10/29 06:51:10;;;;;;;4.15;0.20;;;;;;;9.39;61.25;98914.44;5002943;28;20115;-72
2023/10/29 06:53:38;;;;;;;1.38;0.50;;;;;;;9.35;61.07;98912.13;5005492;28;20433;-73
2023/10/29 06:56:05;;;;;;;1.13;0.20;;;;;;;9.40;61.05;98918.69;4994293;28;20109;-71
2023/10/29 06:58:31;;;;;;;1.90;0.20;;;;;;;9.52;60.60;98922.28;5001542;28;20049;-74
2023/10/29 07:01:04;;;;;;;0.73;0.30;;;;;;;9.39;60.85;98919.66;5005476;28;20053;-72
2023/10/29 07:03:30;;;;;;;2.38;0.20;;;;;;;8.99;62.19;98908.38;5008313;28;20390;-72
2023/10/29 07:06:06;;;;;;;1.45;0.30;;;;;;;9.35;61.42;98918.16;4998439;28;20118;-71
2023/10/29 07:08:33;;;;;;;4.85;0.15;;;;;;;9.53;60.70;98931.75;5001846;28;20170;-69
2023/10/29 07:10:58;;;;;;;2.22;0.30;;;;;;;9.72;60.19;98936.59;4993934;28;20038;-73
2023/10/29 07:13:24;;;;;;;1.77;0.20;;;;;;;10.14;59.45;98931.19;5002596;28;20111;-68
2023/10/29 07:15:50;;;;;;;1.95;0.20;;;;;;;10.21;58.67;98921.97;4999291;28;20041;-70
2023/10/29 07:18:16;;;;;;;1.15;0.55;;;;;;;10.49;58.01;98910.44;4998334;28;20076;-70
2023/10/29 07:20:41;;;;;;;2.60;0.20;;;;;;;10.28;58.62;98927.59;4998400;28;20045;-71
2023/10/29 07:23:08;;;;;;;5.05;0.20;;;;;;;10.02;59.50;98927.66;5000151;28;20560;-70
2023/10/29 07:25:34;;;;;;;1.60;0.30;;;;;;;9.99;59.10;98933.91;5002254;28;20037;-70
2023/10/29 07:28:00;;;;;;;4.55;0.20;;;;;;;10.34;58.56;98927.19;4994253;28;20154;-70
2023/10/29 07:30:27;;;;;;;3.03;0.40;;;;;;;10.60;57.66;98944.47;5002785;28;20627;-69
2023/10/29 07:32:53;;;;;;;0.93;0.20;;;;;;;10.88;57.12;98941.69;4983945;28;20129;-72
2023/10/29 07:35:19;;;;;;;1.27;0.10;;;;;;;10.72;57.10;98942.75;5000294;28;20029;-71
2023/10/29 07:37:45;;;;;;;2.05;0.40;;;;;;;10.63;57.24;98957.31;4997543;28;20090;-70
2023/10/29 07:40:11;;;;;;;0.60;0.13;;;;;;;10.98;56.64;98961.00;4984025;28;20041;-70
2023/10/29 07:42:37;;;;;;;1.20;0.30;;;;;;;10.70;56.89;98964.72;4985543;28;20050;-70
2023/10/29 07:45:03;;;;;;;6.57;0.30;;;;;;;10.79;56.65;98969.28;5000739;28;20037;-70
2023/10/29 07:47:31;;;;;;;3.80;0.38;;;;;;;11.06;55.82;98961.25;4998840;28;20769;-70
2023/10/29 07:49:57;;;;;;;0.38;0.30;;;;;;;12.06;53.75;98961.72;4997588;28;20029;-69
2023/10/29 07:52:23;;;;;;;1.55;0.20;;;;;;;12.10;53.31;98962.34;4996121;28;20069;-66
2023/10/29 07:54:48;;;;;;;0.30;0.10;;;;;;;12.84;51.26;98958.25;4998236;28;20045;-66
2023/10/29 07:57:14;;;;;;;2.38;0.10;;;;;;;13.78;48.29;98948.00;4996661;28;20072;-67
2023/10/29 07:59:42;;;;;;;2.58;0.20;;;;;;;14.39;47.24;98951.59;5001566;28;20030;-66
2023/10/29 08:02:09;;;;;;;0.65;0.10;;;;;;;13.75;47.21;98953.50;5001842;28;20452;-65
2023/10/29 08:04:34;;;;;;;0.95;0.10;;;;;;;12.09;50.92;98961.50;5002658;28;20408;-68
2023/10/29 08:07:00;;;;;;;2.35;0.30;;;;;;;11.58;53.40;98960.06;4996719;28;20041;-70
2023/10/29 08:09:27;;;;;;;0.40;0.20;;;;;;;12.32;52.08;98964.97;4982633;28;20033;-69
2023/10/29 08:11:52;;;;;;;0.85;0.40;;;;;;;13.68;48.10;98957.63;4998757;28;20042;-69
2023/10/29 08:14:18;;;;;;;3.20;0.10;;;;;;;13.33;49.23;98964.78;4997022;28;20097;-69
2023/10/29 08:16:43;;;;;;;1.40;0.05;;;;;;;13.79;47.65;98973.31;4991889;28;20026;-69
2023/10/29 08:19:09;;;;;;;0.82;0.10;;;;;;;14.34;46.78;98978.28;4996140;28;20045;-69
2023/10/29 08:21:35;;;;;;;0.57;0.00;;;;;;;14.94;45.57;98978.34;5007924;28;20072;-70
2023/10/29 08:24:01;;;;;;;1.70;0.52;;;;;;;14.10;46.85;98983.84;4996123;28;20247;-69
2023/10/29 08:26:28;;;;;;;0.60;0.20;;;;;;;15.12;45.29;98984.59;4998673;28;20041;-70
2023/10/29 08:28:55;;;;;;;2.33;0.20;;;;;;;14.80;45.80;98990.09;4995554;28;20060;-69
2023/10/29 08:31:21;;;;;;;1.73;0.10;;;;;;;14.55;45.65;98988.78;4983664;28;20038;-70
2023/10/29 08:33:47;;;;;;;1.35;0.22;;;;;;;14.25;46.42;99003.53;4995713;28;20479;-68
2023/10/29 08:36:16;;;;;;;1.52;0.43;;;;;;;11.61;51.40;99009.53;5005038;28;20097;-69
2023/10/29 08:38:42;;;;;;;1.33;0.10;;;;;;;11.68;51.79;99015.16;5000751;28;20471;-69
2023/10/29 08:41:15;;;;;;;3.95;0.20;;;;;;;12.09;50.18;99034.84;4999890;28;20055;-69
2023/10/29 08:43:41;;;;;;;2.17;0.20;;;;;;;11.91;50.22;99042.28;4996600;28;20041;-70
2023/10/29 08:46:07;;;;;;;1.92;0.20;;;;;;;12.55;47.95;99038.31;4993243;28;20044;-70
2023/10/29 08:48:33;;;;;;;2.05;0.70;;;;;;;13.26;47.87;99044.13;4993322;28;20042;-70
2023/10/29 08:50:58;;;;;;;3.35;0.40;;;;;;;12.15;49.18;99050.06;4997171;28;20521;-70
2023/10/29 08:53:24;;;;;;;2.95;0.43;;;;;;;12.99;47.38;99040.13;4996622;28;20261;-70
2023/10/29 08:55:51;;;;;;;3.05;0.47;;;;;;;13.01;46.59;99050.50;4997621;28;20038;-70
2023/10/29 08:58:17;;;;;;;1.48;0.20;;;;;;;12.04;48.92;99055.28;4997367;28;20048;-70
2023/10/29 09:00:44;;;;;;;0.95;0.22;;;;;;;11.51;49.34;99049.56;5001680;28;20456;-70
2023/10/29 09:03:13;;;;;;;1.08;0.20;;;;;;;11.70;49.74;99059.53;4992834;28;20080;-70
2023/10/29 09:05:39;;;;;;;1.05;0.20;;;;;;;11.59;49.19;99078.63;5007805;28;20033;-69
2023/10/29 09:08:06;;;;;;;1.15;0.45;;;;;;;11.20;49.57;99064.88;4995552;28;20034;-70
2023/10/29 09:10:32;;;;;;;2.92;0.10;;;;;;;10.73;50.85;99061.19;4998115;28;20586;-69
2023/10/29 09:12:58;;;;;;;2.45;0.17;;;;;;;10.26;52.00;99066.13;5004813;28;20038;-69
2023/10/29 09:15:25;;;;;;;0.40;0.10;;;;;;;11.33;50.42;99068.28;4999229;28;20644;-70
2023/10/29 09:17:50;;;;;;;2.47;0.30;;;;;;;11.78;49.03;99049.38;4999687;28;20066;-69
2023/10/29 09:20:16;;;;;;;2.83;0.10;;;;;;;12.11;48.15;99059.13;4998635;28;20030;-70
2023/10/29 09:22:41;;;;;;;0.68;0.03;;;;;;;11.72;48.50;99055.84;5000797;28;20037;-70
2023/10/29 09:25:07;;;;;;;1.83;0.10;;;;;;;12.56;46.72;99056.56;4995960;28;20128;-70
2023/10/29 09:27:32;;;;;;;2.92;0.17;;;;;;;12.99;45.71;99081.25;5004321;28;20045;-70
2023/10/29 09:29:58;;;;;;;5.85;0.68;;;;;;;13.00;46.10;99075.84;5002923;28;20041;-71
2023/10/29 09:32:26;;;;;;;2.22;0.10;;;;;;;12.93;45.97;99079.91;5001434;28;20046;-70
2023/10/29 09:34:52;;;;;;;5.13;0.98;;;;;;;12.91;45.30;99105.44;4996982;28;20044;-70
2023/10/29 09:37:17;;;;;;;2.38;0.13;;;;;;;11.67;47.92;99107.72;4994379;28;20707;-71
2023/10/29 09:39:43;;;;;;;3.33;0.10;;;;;;;11.72;48.57;99117.84;5002067;28;20034;-71
2023/10/29 09:42:11;;;;;;;3.17;0.55;;;;;;;12.22;47.91;99121.16;4992522;28;20037;-70
2023/10/29 09:44:40;;;;;;;0.43;0.10;;;;;;;13.36;45.31;99126.41;4996285;28;20157;-70
2023/10/29 09:47:18;;;;;;;5.35;0.30;;;;;;;13.14;45.25;99115.91;4977397;28;20030;-71
2023/10/29 09:49:44;;;;;;;2.72;0.13;;;;;;;11.70;47.67;99133.66;4999423;28;20111;-70
2023/10/29 09:52:10;;;;;;;4.43;0.22;;;;;;;12.79;46.57;99132.63;4994156;28;20030;-71
2023/10/29 09:54:38;;;;;;;2.03;0.25;;;;;;;13.72;45.27;99133.13;5000412;28;21316;-70
2023/10/29 09:57:05;;;;;;;0.13;0.00;;;;;;;12.92;45.88;99148.25;4993514;28;20099;-70
2023/10/29 09:59:30;;;;;;;2.25;0.30;;;;;;;13.28;44.75;99149.78;4994638;28;20080;-71
2023/10/29 10:01:56;;;;;;;2.00;0.10;;;;;;;13.05;44.60;99155.03;4995099;28;20042;-70
2023/10/29 10:04:21;;;;;;;2.92;0.10;;;;;;;12.54;45.23;99155.41;4995406;28;20263;-70
2023/10/29 10:06:48;;;;;;;4.82;0.40;;;;;;;12.48;46.12;99166.34;4996059;28;20485;-71
2023/10/29 10:09:14;;;;;;;0.82;0.20;;;;;;;11.74;47.12;99165.69;4991229;28;20354;-71
2023/10/29 10:11:39;;;;;;;0.73;0.10;;;;;;;12.33;47.13;99168.31;4995830;28;20033;-71
2023/10/29 10:14:05;;;;;;;1.45;0.20;;;;;;;12.20;46.40;99167.56;4992230;28;20050;-70
2023/10/29 10:16:31;;;;;;;2.72;0.30;;;;;;;12.99;45.69;99171.22;5000208;28;20036;-71
2023/10/29 10:18:58;;;;;;;0.77;0.20;;;;;;;13.20;44.87;99173.97;4995838;28;20631;-71
2023/10/29 10:21:47;;;;;;;2.78;0.10;;;;;;;12.96;45.78;99174.09;5000737;28;20128;-71
2023/10/29 10:24:14;;;;;;;4.82;0.15;;;;;;;13.41;43.96;99166.22;4983732;28;20052;-71
2023/10/29 10:26:40;;;;;;;0.55;0.10;;;;;;;13.28;43.53;99157.66;5011241;28;20041;-72
2023/10/29 10:29:10;;;;;;;3.40;0.10;;;;;;;12.66;44.72;99167.56;4994004;28;20177;-72
2023/10/29 10:31:35;;;;;;;1.75;0.40;;;;;;;11.24;47.79;99174.38;4998502;28;20519;-72
2023/10/29 10:34:10;;;;;;;1.98;0.05;;;;;;;11.91;46.37;99183.66;4992995;28;20045;-72
2023/10/29 10:36:35;;;;;;;2.38;0.17;;;;;;;12.29;45.21;99153.81;5002490;28;20108;-72
2023/10/29 10:39:01;;;;;;;0.50;0.00;;;;;;;12.25;45.88;99163.66;4993415;28;20045;-72
2023/10/29 10:41:43;;;;;;;3.20;0.50;;;;;;;12.53;45.84;99169.47;4991934;28;20053;-72
2023/10/29 10:44:11;;;;;;;1.15;0.15;;;;;;;13.27;44.68;99177.81;4998605;28;20075;-71
2023/10/29 10:46:37;;;;;;;4.07;0.13;;;;;;;13.65;43.62;99189.72;4996896;28;20038;-71
2023/10/29 10:49:09;;;;;;;4.50;0.10;;;;;;;12.44;45.97;99191.13;4992103;28;20122;-71
2023/10/29 10:51:37;;;;;;;6.75;0.20;;;;;;;11.80;47.19;99191.44;4982402;28;20801;-71
2023/10/29 10:54:04;;;;;;;2.83;1.02;;;;;;;12.12;47.00;99207.44;4984791;28;20033;-71
2023/10/29 10:56:35;;;;;;;0.75;0.10;;;;;;;12.28;46.93;99207.97;5003665;28;20041;-72
2023/10/29 10:59:03;;;;;;;3.67;0.35;;;;;;;12.66;45.91;99199.03;4995750;28;20048;-71
2023/10/29 11:01:29;;;;;;;7.00;0.43;;;;;;;11.63;47.71;99201.28;4995069;28;20057;-72
2023/10/29 11:03:56;;;;;;;3.78;0.10;;;;;;;11.42;48.78;99195.81;4995622;28;20274;-70
2023/10/29 11:06:22;;;;;;;3.05;0.40;;;;;;;12.23;46.98;99211.88;5002087;28;20402;-71
2023/10/29 11:08:48;;;;;;;2.70;0.20;;;;;;;11.74;48.25;99203.16;5000472;28;20086;-71
2023/10/29 11:11:15;;;;;;;4.03;0.20;;;;;;;10.93;49.31;99204.44;4991865;28;20061;-71
2023/10/29 11:13:41;;;;;;;3.20;0.30;;;;;;;11.62;48.15;99204.00;4997483;28;20695;-71
2023/10/29 11:16:24;;;;;;;6.63;0.77;;;;;;;11.84;47.24;99204.19;4990964;28;20049;-71
2023/10/29 11:18:52;;;;;;;10.73;0.73;;;;;;;11.74;47.26;99202.31;4986572;28;20164;-71
2023/10/29 11:21:34;;;;;;;0.90;0.20;;;;;;;10.98;49.14;99199.72;4993429;28;20158;-71
2023/10/29 11:24:20;;;;;;;1.98;0.25;;;;;;;12.21;47.10;99204.13;4992262;28;20038;-71
2023/10/29 11:26:46;;;;;;;9.13;0.50;;;;;;;12.43;46.76;99220.91;4998707;28;20045;-71
2023/10/29 11:29:43;;;;;;;2.28;0.50;;;;;;;12.39;45.99;99214.22;4997088;28;20030;-71
2023/10/29 11:32:25;;;;;;;3.83;0.85;;;;;;;12.00;46.35;99230.13;4999951;28;20045;-71
2023/10/29 11:35:16;;;;;;;4.38;0.30;;;;;;;11.84;46.75;99230.38;4999130;28;20089;-71
2023/10/29 11:37:45;;;;;;;5.82;0.28;;;;;;;11.92;46.90;99234.22;5002407;28;20129;-70